createdAt,value
2023-06-11T00:00:30.593Z,99911.28
2023-06-11T00:03:22.348Z,99911.56
2023-06-11T00:05:49.702Z,99901.88
2023-06-11T00:08:16.875Z,99906.38
2023-06-11T00:10:43.755Z,99910.72
2023-06-11T00:13:10.919Z,99914.38
2023-06-11T00:15:37.838Z,99908.22
2023-06-11T00:18:06.372Z,99912.72
2023-06-11T00:20:34.004Z,99912.72
2023-06-11T00:23:04.306Z,99915.38
2023-06-11T00:25:33.449Z,99917.34
2023-06-11T00:28:00.629Z,99919.50
2023-06-11T00:30:27.564Z,99912.31
2023-06-11T00:32:54.719Z,99920.63
2023-06-11T00:35:21.651Z,99919.09
2023-06-11T00:37:51.113Z,99920.25
2023-06-11T00:40:18.042Z,99920.41
2023-06-11T00:42:46.429Z,99913.34
2023-06-11T00:45:14.280Z,99915.50
2023-06-11T00:47:41.877Z,99912.16
2023-06-11T00:50:10.821Z,99915.81
2023-06-11T00:52:37.985Z,99914.94
2023-06-11T00:55:05.224Z,99915.25
2023-06-11T00:57:33.015Z,99924.09
2023-06-11T01:00:01.802Z,99924.09
2023-06-11T01:02:40.415Z,99916.25
2023-06-11T01:05:09.473Z,99920.59
2023-06-11T01:07:42.395Z,99917.94
2023-06-11T01:10:10.239Z,99913.75
2023-06-11T01:12:37.806Z,99915.56
2023-06-11T01:15:05.019Z,99923.72
2023-06-11T01:17:45.619Z,99916.69
2023-06-11T01:20:17.707Z,99913.19
2023-06-11T01:23:47.521Z,99915.03
2023-06-11T01:26:27.223Z,99918.00
2023-06-11T01:28:59.449Z,99926.13
2023-06-11T01:31:30.949Z,99920.78
2023-06-11T01:33:59.068Z,99915.44
2023-06-11T01:36:30.054Z,99919.94
2023-06-11T01:39:00.016Z,99919.81
2023-06-11T01:41:28.348Z,99922.75
2023-06-11T01:43:55.615Z,99922.75
2023-06-11T01:46:22.815Z,99924.56
2023-06-11T01:48:50.234Z,99928.94
2023-06-11T01:51:17.204Z,99927.25
2023-06-11T01:53:44.782Z,99927.41
2023-06-11T01:56:11.941Z,99932.56
2023-06-11T01:58:39.057Z,99934.41
2023-06-11T02:01:06.054Z,99928.22
2023-06-11T02:03:33.301Z,99931.91
2023-06-11T02:06:00.850Z,99930.06
2023-06-11T02:08:28.134Z,99932.56
2023-06-11T02:10:55.173Z,99932.72
2023-06-11T02:13:22.321Z,99928.50
2023-06-11T02:15:49.149Z,99929.50
2023-06-11T02:18:16.482Z,99926.84
2023-06-11T02:20:43.326Z,99932.16
2023-06-11T02:23:10.517Z,99932.16
2023-06-11T02:25:37.402Z,99927.84
2023-06-11T02:28:06.568Z,99936.66
2023-06-11T02:30:33.596Z,99929.66
2023-06-11T02:33:00.871Z,99929.66
2023-06-11T02:35:27.717Z,99934.84
2023-06-11T02:37:54.791Z,99939.50
2023-06-11T02:40:22.683Z,99930.50
2023-06-11T02:42:49.824Z,99935.00
2023-06-11T02:45:16.641Z,99935.84
2023-06-11T02:47:43.899Z,99930.66
2023-06-11T02:50:11.102Z,99932.63
2023-06-11T02:52:38.310Z,99929.81
2023-06-11T02:55:05.921Z,99930.66
2023-06-11T02:57:33.063Z,99935.00
2023-06-11T02:59:59.914Z,99934.31
2023-06-11T03:02:27.058Z,99933.47
2023-06-11T03:04:53.994Z,99937.97
2023-06-11T03:07:21.120Z,99939.94
2023-06-11T03:09:47.973Z,99940.63
2023-06-11T03:12:16.556Z,99941.59
2023-06-11T03:14:43.404Z,99939.81
2023-06-11T03:17:10.620Z,99941.47
2023-06-11T03:19:37.446Z,99940.47
2023-06-11T03:22:04.788Z,99943.16
2023-06-11T03:24:34.601Z,99940.34
2023-06-11T03:27:01.877Z,99950.84
2023-06-11T03:29:28.779Z,99945.66
2023-06-11T03:31:55.984Z,99949.47
2023-06-11T03:34:22.875Z,99954.50
2023-06-11T03:36:50.093Z,99949.16
2023-06-11T03:39:18.016Z,99950.72
2023-06-11T03:41:45.191Z,99958.72
2023-06-11T03:44:12.802Z,99950.56
2023-06-11T03:46:39.987Z,99955.63
2023-06-11T03:49:06.872Z,99953.09
2023-06-11T03:51:34.008Z,99951.13
2023-06-11T03:54:00.832Z,99954.63
2023-06-11T03:56:28.047Z,99965.19
2023-06-11T03:58:55.137Z,99959.69
2023-06-11T04:01:22.362Z,99958.53
2023-06-11T04:03:49.372Z,99952.94
2023-06-11T04:06:19.139Z,99951.09
2023-06-11T04:08:46.045Z,99964.97
2023-06-11T04:11:13.153Z,99955.97
2023-06-11T04:13:39.994Z,99953.84
2023-06-11T04:16:07.522Z,99956.38
2023-06-11T04:18:34.536Z,99955.09
2023-06-11T04:21:01.658Z,99955.78
2023-06-11T04:23:28.540Z,99964.47
2023-06-11T04:25:57.633Z,99955.47
2023-06-11T04:28:24.517Z,99963.19
2023-06-11T04:30:53.333Z,99970.88
2023-06-11T04:33:20.186Z,99968.78
2023-06-11T04:35:48.443Z,99963.28
2023-06-11T04:38:19.113Z,99963.81
2023-06-11T04:40:47.034Z,99966.47
2023-06-11T04:43:13.902Z,99967.88
2023-06-11T04:45:40.997Z,99966.59
2023-06-11T04:48:08.093Z,99963.44
2023-06-11T04:50:37.604Z,99965.00
2023-06-11T04:53:04.493Z,99974.50
2023-06-11T04:55:33.529Z,99963.38
2023-06-11T04:58:00.502Z,99969.25
2023-06-11T05:00:30.220Z,99967.81
2023-06-11T05:02:58.171Z,99963.69
2023-06-11T05:05:25.669Z,99972.09
2023-06-11T05:07:52.848Z,99967.59
2023-06-11T05:10:19.973Z,99975.13
2023-06-11T05:12:46.904Z,99970.75
2023-06-11T05:15:14.554Z,99973.94
2023-06-11T05:17:44.967Z,99981.50
2023-06-11T05:20:12.942Z,99986.38
2023-06-11T05:22:40.628Z,99983.06
2023-06-11T05:25:08.542Z,99980.78
2023-06-11T05:27:35.897Z,99975.75
2023-06-11T05:30:06.548Z,99982.84
2023-06-11T05:32:34.209Z,99983.56
2023-06-11T05:35:02.539Z,99977.16
2023-06-11T05:37:29.509Z,99985.09
2023-06-11T05:39:59.317Z,99979.84
2023-06-11T05:42:26.233Z,99984.44
2023-06-11T05:44:53.308Z,99989.19
2023-06-11T05:47:20.229Z,99989.41
2023-06-11T05:49:47.468Z,99980.94
2023-06-11T05:52:14.328Z,99983.81
2023-06-11T05:54:41.490Z,99994.72
2023-06-11T05:57:25.615Z,99987.09
2023-06-11T05:59:53.099Z,99989.28
2023-06-11T06:02:20.362Z,99993.47
2023-06-11T06:04:49.557Z,99994.00
2023-06-11T06:07:17.084Z,99997.50
2023-06-11T06:09:44.341Z,99993.81
2023-06-11T06:12:11.704Z,99997.34
2023-06-11T06:14:38.922Z,100000.53
2023-06-11T06:17:06.306Z,100000.69
2023-06-11T06:19:33.433Z,100004.38
2023-06-11T06:22:00.322Z,100007.06
2023-06-11T06:24:27.597Z,100007.22
2023-06-11T06:26:57.696Z,100008.91
2023-06-11T06:29:25.229Z,100007.91
2023-06-11T06:31:52.087Z,100013.44
2023-06-11T06:34:19.401Z,100009.91
2023-06-11T06:36:46.831Z,100013.38
2023-06-11T06:39:13.906Z,100017.03
2023-06-11T06:41:40.738Z,100017.41
2023-06-11T06:44:07.953Z,100017.28
2023-06-11T06:46:34.785Z,100013.72
2023-06-11T06:49:02.035Z,100016.44
2023-06-11T06:51:30.824Z,100011.59
2023-06-11T06:53:58.010Z,100019.31
2023-06-11T06:56:24.974Z,100019.63
2023-06-11T06:58:52.137Z,100021.47
2023-06-11T07:01:19.084Z,100019.78
2023-06-11T07:03:46.269Z,100021.00
2023-06-11T07:06:13.227Z,100029.69
2023-06-11T07:08:40.949Z,100025.00
2023-06-11T07:11:07.861Z,100024.16
2023-06-11T07:13:36.264Z,100020.66
2023-06-11T07:16:03.968Z,100024.69
2023-06-11T07:18:31.341Z,100020.63
2023-06-11T07:20:58.276Z,100015.75
2023-06-11T07:23:25.477Z,100025.78
2023-06-11T07:25:52.345Z,100028.50
2023-06-11T07:28:20.209Z,100024.09
2023-06-11T07:30:47.220Z,100025.09
2023-06-11T07:33:17.629Z,100030.75
2023-06-11T07:35:44.940Z,100028.34
2023-06-11T07:38:12.109Z,100035.50
2023-06-11T07:40:39.292Z,100016.81
2023-06-11T07:43:06.459Z,100015.28
2023-06-11T07:45:33.321Z,100013.69
2023-06-11T07:48:00.451Z,100025.78
2023-06-11T07:50:27.423Z,100022.38
2023-06-11T07:52:54.629Z,100028.94
2023-06-11T07:55:22.742Z,100028.47
2023-06-11T07:57:49.904Z,100032.81
2023-06-11T08:00:18.352Z,100028.22
2023-06-11T08:02:45.942Z,100026.44
2023-06-11T08:05:18.916Z,100036.84
2023-06-11T08:07:47.385Z,100038.09
2023-06-11T08:10:15.235Z,100033.41
2023-06-11T08:12:42.458Z,100033.16
2023-06-11T08:15:11.299Z,100037.09
2023-06-11T08:17:39.399Z,100043.00
2023-06-11T08:20:08.670Z,100040.56
2023-06-11T08:22:36.159Z,100045.50
2023-06-11T08:25:03.910Z,100038.59
2023-06-11T08:27:31.229Z,100042.97
2023-06-11T08:29:58.567Z,100044.66
2023-06-11T08:32:26.256Z,100045.91
2023-06-11T08:34:54.767Z,100047.50
2023-06-11T08:37:21.736Z,100042.16
2023-06-11T08:39:49.009Z,100040.75
2023-06-11T08:42:15.902Z,100044.06
2023-06-11T08:44:43.208Z,100041.63
2023-06-11T08:47:13.193Z,100047.84
2023-06-11T08:49:41.726Z,100048.25
2023-06-11T08:52:09.282Z,100045.84
2023-06-11T08:54:36.918Z,100055.19
2023-06-11T08:57:05.972Z,100047.50
2023-06-11T08:59:33.131Z,100055.09
2023-06-11T09:02:01.111Z,100043.69
2023-06-11T09:04:28.713Z,100049.84
2023-06-11T09:07:01.004Z,100052.16
2023-06-11T09:09:28.373Z,100048.28
2023-06-11T09:11:55.688Z,100050.50
2023-06-11T09:14:22.912Z,100042.56
2023-06-11T09:16:50.112Z,100049.38
2023-06-11T09:19:21.706Z,100044.72
2023-06-11T09:21:53.386Z,100036.63
2023-06-11T09:24:21.999Z,100044.72
2023-06-11T09:26:54.859Z,100053.63
2023-06-11T09:29:23.497Z,100050.09
2023-06-11T09:32:10.059Z,100055.75
2023-06-11T09:34:41.485Z,100049.25
2023-06-11T09:37:12.200Z,100063.00
2023-06-11T09:39:43.012Z,100053.22
2023-06-11T09:42:24.456Z,100063.66
2023-06-11T09:44:52.441Z,100054.69
2023-06-11T09:47:20.164Z,100050.63
2023-06-11T09:49:47.494Z,100068.03
2023-06-11T09:52:15.404Z,100066.16
2023-06-11T09:54:43.994Z,100066.47
2023-06-11T09:57:12.352Z,100060.59
2023-06-11T09:59:41.086Z,100065.28
2023-06-11T10:02:08.703Z,100063.50
2023-06-11T10:04:37.863Z,100052.31
2023-06-11T10:07:06.995Z,100056.88
2023-06-11T10:09:34.783Z,100055.75
2023-06-11T10:12:02.280Z,100053.41
2023-06-11T10:14:31.732Z,100048.22
2023-06-11T10:16:58.692Z,100049.75
2023-06-11T10:19:35.760Z,100047.44
2023-06-11T10:22:03.312Z,100049.88
2023-06-11T10:24:30.970Z,100050.06
2023-06-11T10:27:15.140Z,100046.84
2023-06-11T10:29:47.822Z,100057.00
2023-06-11T10:32:21.739Z,100048.03
2023-06-11T10:34:59.241Z,100039.63
2023-06-11T10:37:42.133Z,100042.09
2023-06-11T10:40:10.461Z,100043.56
2023-06-11T10:42:42.978Z,100046.28
2023-06-11T10:45:12.244Z,100046.38
2023-06-11T10:47:53.038Z,100048.88
2023-06-11T10:50:33.523Z,100043.69
2023-06-11T10:53:04.043Z,100046.16
2023-06-11T10:55:34.050Z,100047.25
2023-06-11T10:58:03.830Z,100043.53
2023-06-11T11:00:34.002Z,100047.97
2023-06-11T11:03:04.572Z,100046.00
2023-06-11T11:05:32.815Z,100050.53
2023-06-11T11:08:02.980Z,100047.31
2023-06-11T11:10:30.485Z,100050.94
2023-06-11T11:12:57.641Z,100047.78
2023-06-11T11:15:25.015Z,100035.25
2023-06-11T11:17:52.330Z,100033.81
2023-06-11T11:20:23.346Z,100034.72
2023-06-11T11:22:53.130Z,100031.84
2023-06-11T11:25:22.840Z,100034.53
2023-06-11T11:27:49.874Z,100034.19
2023-06-11T11:30:20.346Z,100033.72
2023-06-11T11:32:47.412Z,100029.66
2023-06-11T11:35:18.938Z,100025.88
2023-06-11T11:37:46.857Z,100027.91
2023-06-11T11:40:14.505Z,100026.25
2023-06-11T11:42:58.371Z,100028.91
2023-06-11T11:45:33.675Z,100023.38
2023-06-11T11:48:04.972Z,100031.97
2023-06-11T11:50:32.963Z,100032.41
2023-06-11T11:53:05.961Z,100026.47
2023-06-11T11:55:48.435Z,100024.59
2023-06-11T11:58:26.721Z,100021.38
2023-06-11T12:00:57.705Z,100023.38
2023-06-11T12:03:25.836Z,100022.00
2023-06-11T12:06:06.474Z,100024.22
2023-06-11T12:08:34.753Z,100015.88
2023-06-11T12:11:04.985Z,100019.69
2023-06-11T12:13:35.569Z,100008.34
2023-06-11T12:16:04.893Z,100013.00
2023-06-11T12:18:33.245Z,100008.88
2023-06-11T12:21:00.541Z,100011.75
2023-06-11T12:23:29.966Z,100006.44
2023-06-11T12:25:57.328Z,99994.88
2023-06-11T12:28:24.369Z,99996.16
2023-06-11T12:30:51.507Z,100014.31
2023-06-11T12:33:19.664Z,100003.94
2023-06-11T12:35:46.447Z,100004.41
2023-06-11T12:38:15.775Z,100015.97
2023-06-11T12:40:42.991Z,100010.31
2023-06-11T12:43:10.129Z,100004.38
2023-06-11T12:45:38.692Z,100007.19
2023-06-11T12:48:06.605Z,100003.66
2023-06-11T12:50:33.695Z,100010.59
2023-06-11T12:53:01.655Z,100005.84
2023-06-11T12:55:28.548Z,100003.34
2023-06-11T12:57:56.034Z,100000.03
2023-06-11T13:00:24.375Z,100002.16
2023-06-11T13:02:51.791Z,100004.41
2023-06-11T13:05:20.979Z,100004.56
2023-06-11T13:07:49.983Z,100008.03
2023-06-11T13:10:18.107Z,100000.03
2023-06-11T13:12:45.474Z,100002.25
2023-06-11T13:15:12.331Z,100000.13
2023-06-11T13:17:40.063Z,99998.09
2023-06-11T13:20:07.718Z,100002.72
2023-06-11T13:22:34.918Z,100006.81
2023-06-11T13:25:01.841Z,100007.41
2023-06-11T13:27:29.198Z,99999.16
2023-06-11T13:29:56.497Z,100001.75
2023-06-11T13:32:24.408Z,99999.78
2023-06-11T13:34:51.605Z,99995.09
2023-06-11T13:37:19.677Z,99996.31
2023-06-11T13:39:46.673Z,100006.28
2023-06-11T13:42:13.984Z,99994.72
2023-06-11T13:44:40.826Z,99991.03
2023-06-11T13:47:09.438Z,99988.97
2023-06-11T13:49:36.618Z,99981.66
2023-06-11T13:52:07.439Z,99994.59
2023-06-11T13:54:36.773Z,99978.81
2023-06-11T13:57:04.939Z,99988.56
2023-06-11T13:59:32.640Z,99987.84
2023-06-11T14:02:02.657Z,99992.38
2023-06-11T14:04:29.880Z,99991.22
2023-06-11T14:06:57.167Z,99995.84
2023-06-11T14:09:24.527Z,99994.13
2023-06-11T14:11:51.864Z,99993.56
2023-06-11T14:16:46.171Z,100012.34
2023-06-11T14:19:13.043Z,100007.88
2023-06-11T14:21:40.496Z,100007.94
2023-06-11T14:24:07.804Z,100003.44
2023-06-11T14:26:35.084Z,100008.72
2023-06-11T14:29:02.135Z,100012.28
2023-06-11T14:31:29.690Z,99997.19
2023-06-11T14:33:56.591Z,100001.97
2023-06-11T14:36:23.897Z,100000.25
2023-06-11T14:38:52.966Z,100011.25
2023-06-11T14:41:20.157Z,100013.91
2023-06-11T14:43:47.051Z,100007.59
2023-06-11T14:46:14.299Z,100007.31
2023-06-11T14:48:41.301Z,100017.66
2023-06-11T14:51:08.458Z,100012.19
2023-06-11T14:53:35.591Z,100012.56
2023-06-11T14:56:02.803Z,100022.13
2023-06-11T14:58:29.745Z,100017.41
2023-06-11T15:00:57.079Z,100018.72
2023-06-11T15:03:24.074Z,100022.44
2023-06-11T15:05:51.633Z,100020.38
2023-06-11T15:08:18.605Z,100018.06
2023-06-11T15:10:48.638Z,100026.16
2023-06-11T15:13:18.354Z,100014.91
2023-06-11T15:15:47.421Z,100026.88
2023-06-11T15:18:14.468Z,100028.06
2023-06-11T15:20:41.765Z,100038.06
2023-06-11T15:23:11.025Z,100036.78
2023-06-11T15:25:38.542Z,100037.66
2023-06-11T15:28:05.538Z,100037.56
2023-06-11T15:30:32.691Z,100042.03
2023-06-11T15:33:00.092Z,100042.84
2023-06-11T15:35:27.430Z,100043.50
2023-06-11T15:37:54.527Z,100049.06
2023-06-11T15:40:23.262Z,100059.91
2023-06-11T15:42:50.183Z,100052.38
2023-06-11T15:45:17.562Z,100052.44
2023-06-11T15:47:45.101Z,100063.75
2023-06-11T15:50:13.062Z,100058.19
2023-06-11T15:52:40.364Z,100055.31
2023-06-11T15:55:08.549Z,100068.13
2023-06-11T15:57:35.627Z,100070.75
2023-06-11T16:00:03.997Z,100060.22
2023-06-11T16:02:31.072Z,100065.75
2023-06-11T16:04:58.378Z,100072.97
2023-06-11T16:07:25.339Z,100077.72
2023-06-11T16:09:52.508Z,100073.81
2023-06-11T16:12:19.366Z,100080.38
2023-06-11T16:14:46.908Z,100089.31
2023-06-11T16:17:15.657Z,100086.78
2023-06-11T16:19:44.250Z,100082.78
2023-06-11T16:22:13.747Z,100094.09
2023-06-11T16:24:40.960Z,100096.47
2023-06-11T16:27:07.929Z,100089.94
2023-06-11T16:29:35.018Z,100093.50
2023-06-11T16:32:02.015Z,100100.41
2023-06-11T16:34:30.015Z,100104.47
2023-06-11T16:36:56.962Z,100100.34
2023-06-11T16:39:28.574Z,100106.41
2023-06-11T16:41:56.721Z,100111.44
2023-06-11T16:44:25.604Z,100110.00
2023-06-11T16:46:54.272Z,100105.44
2023-06-11T16:49:21.276Z,100114.00
2023-06-11T16:51:48.616Z,100113.19
2023-06-11T16:54:18.492Z,100113.00
2023-06-11T16:56:46.424Z,100111.50
2023-06-11T16:59:13.248Z,100106.97
2023-06-11T17:01:40.482Z,100104.97
2023-06-11T17:04:07.525Z,100101.94
2023-06-11T17:06:34.883Z,100106.84
2023-06-11T17:09:01.912Z,100113.53
2023-06-11T17:11:29.178Z,100122.25
2023-06-11T17:13:56.392Z,100121.09
2023-06-11T17:16:23.625Z,100120.09
2023-06-11T17:18:50.571Z,100120.63
2023-06-11T17:21:17.782Z,100117.09
2023-06-11T17:23:44.871Z,100113.88
2023-06-11T17:26:13.273Z,100124.97
2023-06-11T17:28:41.878Z,100129.81
2023-06-11T17:31:13.220Z,100126.47
2023-06-11T17:33:40.129Z,100130.63
2023-06-11T17:36:08.639Z,100135.81
2023-06-11T17:38:35.792Z,100132.97
2023-06-11T17:41:02.919Z,100133.63
2023-06-11T17:43:29.789Z,100133.44
2023-06-11T17:45:56.965Z,100136.63
2023-06-11T17:48:23.828Z,100140.63
2023-06-11T17:50:50.951Z,100147.34
2023-06-11T17:53:17.846Z,100143.47
2023-06-11T17:55:46.037Z,100155.34
2023-06-11T17:58:14.382Z,100155.00
2023-06-11T18:00:41.554Z,100153.16
2023-06-11T18:03:08.430Z,100150.94
2023-06-11T18:05:35.722Z,100154.81
2023-06-11T18:08:02.574Z,100145.72
2023-06-11T18:10:29.745Z,100147.03
2023-06-11T18:12:56.595Z,100146.97
2023-06-11T18:15:33.322Z,100148.28
2023-06-11T18:18:04.363Z,100153.44
2023-06-11T18:20:32.794Z,100153.06
2023-06-11T18:23:00.012Z,100145.69
2023-06-11T18:25:28.157Z,100150.69
2023-06-11T18:27:55.163Z,100161.56
2023-06-11T18:30:22.791Z,100166.22
2023-06-11T18:32:49.981Z,100166.84
2023-06-11T18:35:20.602Z,100173.69
2023-06-11T18:37:47.676Z,100180.34
2023-06-11T18:40:15.166Z,100183.47
2023-06-11T18:42:42.628Z,100180.19
2023-06-11T18:45:10.691Z,100183.41
2023-06-11T18:47:40.312Z,100182.91
2023-06-11T18:50:11.044Z,100191.16
2023-06-11T18:52:39.220Z,100185.50
2023-06-11T18:55:07.016Z,100190.19
2023-06-11T18:57:33.958Z,100188.97
2023-06-11T19:00:01.156Z,100193.63
2023-06-11T19:02:28.188Z,100195.78
2023-06-11T19:04:55.707Z,100197.78
2023-06-11T19:07:22.612Z,100199.25
2023-06-11T19:09:49.768Z,100204.78
2023-06-11T19:12:16.622Z,100198.88
2023-06-11T19:14:43.931Z,100214.03
2023-06-11T19:17:11.744Z,100214.81
2023-06-11T19:19:39.018Z,100212.59
2023-06-11T19:22:06.222Z,100214.03
2023-06-11T19:24:33.424Z,100214.09
2023-06-11T19:27:00.350Z,100213.88
2023-06-11T19:29:30.598Z,100227.16
2023-06-11T19:31:57.584Z,100219.81
2023-06-11T19:34:24.846Z,100217.88
2023-06-11T19:36:51.689Z,100224.22
2023-06-11T19:39:19.685Z,100223.84
2023-06-11T19:41:46.534Z,100231.63
2023-06-11T19:44:13.744Z,100237.72
2023-06-11T19:46:40.842Z,100238.16
2023-06-11T19:49:08.072Z,100236.06
2023-06-11T19:51:35.254Z,100234.84
2023-06-11T19:54:02.405Z,100235.56
2023-06-11T19:56:29.622Z,100228.94
2023-06-11T19:58:57.645Z,100232.22
2023-06-11T20:01:25.260Z,100233.78
2023-06-11T20:03:52.592Z,100228.06
2023-06-11T20:06:20.088Z,100228.78
2023-06-11T20:08:47.222Z,100226.97
2023-06-11T20:11:14.774Z,100232.34
2023-06-11T20:13:44.501Z,100233.91
2023-06-11T20:16:12.242Z,100234.75
2023-06-11T20:18:41.371Z,100230.00
2023-06-11T20:21:08.885Z,100241.13
2023-06-11T20:23:36.373Z,100248.69
2023-06-11T20:26:03.834Z,100248.22
2023-06-11T20:28:31.094Z,100247.81
2023-06-11T20:30:58.038Z,100240.34
2023-06-11T20:33:25.257Z,100249.63
2023-06-11T20:35:52.148Z,100254.28
2023-06-11T20:38:19.428Z,100246.41
2023-06-11T20:40:46.787Z,100245.56
2023-06-11T20:43:14.173Z,100247.69
2023-06-11T20:45:51.226Z,100257.50
2023-06-11T20:48:24.286Z,100250.59
2023-06-11T20:50:51.509Z,100249.22
2023-06-11T20:53:32.634Z,100237.81
2023-06-11T20:56:00.888Z,100236.44
2023-06-11T20:58:28.115Z,100235.59
2023-06-11T21:00:54.981Z,100231.50
2023-06-11T21:03:22.565Z,100233.63
2023-06-11T21:05:51.317Z,100242.72
2023-06-11T21:08:19.563Z,100240.34
2023-06-11T21:10:47.013Z,100242.31
2023-06-11T21:13:15.085Z,100246.22
2023-06-11T21:15:42.427Z,100246.34
2023-06-11T21:18:09.716Z,100253.38
2023-06-11T21:20:39.050Z,100251.00
2023-06-11T21:23:06.273Z,100251.09
2023-06-11T21:25:33.241Z,100250.41
2023-06-11T21:28:00.400Z,100256.88
2023-06-11T21:30:27.354Z,100253.75
2023-06-11T21:32:54.761Z,100253.16
2023-06-11T21:35:21.987Z,100256.81
2023-06-11T21:37:49.111Z,100257.25
2023-06-11T21:40:16.134Z,100250.34
2023-06-11T21:42:43.131Z,100254.84
2023-06-11T21:45:11.070Z,100249.78
2023-06-11T21:47:37.994Z,100259.72
2023-06-11T21:50:06.962Z,100259.03
2023-06-11T21:52:34.475Z,100256.75
2023-06-11T21:55:06.847Z,100249.88
2023-06-11T21:57:33.937Z,100247.50
2023-06-11T22:00:05.442Z,100244.91
2023-06-11T22:02:32.408Z,100254.88
2023-06-11T22:05:01.911Z,100247.16
2023-06-11T22:07:30.093Z,100249.22
2023-06-11T22:09:57.205Z,100254.00
2023-06-11T22:12:24.794Z,100248.66
2023-06-11T22:14:51.961Z,100260.31
2023-06-11T22:17:22.268Z,100247.38
2023-06-11T22:19:50.286Z,100247.63
2023-06-11T22:22:17.293Z,100240.88
2023-06-11T22:24:44.533Z,100245.75
2023-06-11T22:27:13.348Z,100246.03
2023-06-11T22:29:41.127Z,100247.13
2023-06-11T22:32:08.468Z,100237.13
2023-06-11T22:34:35.846Z,100235.84
2023-06-11T22:37:02.723Z,100228.13
2023-06-11T22:39:29.855Z,100239.91
2023-06-11T22:41:56.689Z,100233.97
2023-06-11T22:44:23.752Z,100231.31
2023-06-11T22:46:50.558Z,100227.25
2023-06-11T22:49:17.737Z,100220.22
2023-06-11T22:51:45.933Z,100221.31
2023-06-11T22:54:13.064Z,100227.50
2023-06-11T22:56:40.169Z,100223.53
2023-06-11T22:59:08.578Z,100219.56
2023-06-11T23:01:37.180Z,100233.97
2023-06-11T23:04:04.834Z,100221.94
2023-06-11T23:06:32.938Z,100226.50
2023-06-11T23:09:00.174Z,100225.44
2023-06-11T23:11:27.756Z,100226.78
2023-06-11T23:13:54.878Z,100222.81
2023-06-11T23:16:21.736Z,100221.38
2023-06-11T23:18:54.628Z,100225.00
2023-06-11T23:21:23.040Z,100218.38
2023-06-11T23:23:50.274Z,100223.09
2023-06-11T23:26:17.290Z,100221.66
2023-06-11T23:28:44.759Z,100219.97
2023-06-11T23:31:12.019Z,100219.25
2023-06-11T23:33:39.761Z,100212.38
2023-06-11T23:36:07.396Z,100211.06
2023-06-11T23:38:34.560Z,100219.28
2023-06-11T23:41:01.384Z,100214.38
2023-06-11T23:43:28.579Z,100214.47
2023-06-11T23:45:55.655Z,100216.56
2023-06-11T23:48:22.952Z,100216.78
2023-06-11T23:50:49.812Z,100213.69
2023-06-11T23:53:17.086Z,100220.69
2023-06-11T23:55:44.026Z,100216.44
2023-06-11T23:58:18.479Z,100224.41
